This is the latest recevied weather packets stored in our database for station/object KE5VT. If no packets are shown the sender has not sent any weather packets the latest 10 day(s).
| Time | Temp. | Humidity | Pressure | Rain* | Wind** | Luminosity | Snow |
|---|---|---|---|---|---|---|---|
| 1787594904 | 31.67° C | 46% | 1011.5 hPa | 0 mm | - | 687 W/m² | - |
| 1787594599 | 31.67° C | 45% | 1011.5 hPa | 0 mm | - | 689 W/m² | - |
| 1787594297 | 31.11° C | 46% | 1011.8 hPa | 0 mm | - | 698 W/m² | - |
| 1787593992 | 31.11° C | 46% | 1011.7 hPa | 0 mm | - | 696 W/m² | - |
| 1787593692 | 31.11° C | 46% | 1011.9 hPa | 0 mm | - | 295 W/m² | - |
| 1787593388 | 31.11° C | 47% | 1011.7 hPa | 0 mm | - | 669 W/m² | - |
| 1787593082 | 30.56° C | 47% | 1011.7 hPa | 0 mm | - | 688 W/m² | - |
| 1787592777 | 31.67° C | 45% | 1011.8 hPa | 0 mm | - | 688 W/m² | - |
| 1787592477 | 31.67° C | 45% | 1012 hPa | 0 mm | - | 693 W/m² | - |
| 1787592172 | 31.11° C | 46% | 1012.1 hPa | 0 mm | - | 690 W/m² | - |
| 1787591868 | 30.56° C | 47% | 1012 hPa | 0 mm | - | 692 W/m² | - |
| 1787591568 | 30.56° C | 48% | 1012 hPa | 0 mm | - | 693 W/m² | - |
| 1787591265 | 31.11° C | 46% | 1012 hPa | 0 mm | - | 688 W/m² | - |
| 1787590965 | 30° C | 46% | 1012.1 hPa | 0 mm | - | 690 W/m² | - |
| 1787590660 | 30.56° C | 47% | 1011.9 hPa | 0 mm | - | 689 W/m² | - |
| 1787590356 | 30.56° C | 47% | 1012.2 hPa | 0 mm | - | 685 W/m² | - |
| 1787590050 | 31.11° C | 45% | 1012.4 hPa | 0 mm | - | 675 W/m² | - |
| 1787589747 | 29.44° C | 48% | 1012.3 hPa | 0 mm | - | 672 W/m² | - |
| 1787589442 | 30° C | 48% | 1012.5 hPa | 0 mm | - | 667 W/m² | - |
| 1787589137 | 28.89° C | 50% | 1012.5 hPa | 0 mm | - | 667 W/m² | - |
| 1787588832 | 28.89° C | 50% | 1012.5 hPa | 0 mm | - | 671 W/m² | - |
| 1787588529 | 28.89° C | 49% | 1012.5 hPa | 0 mm | - | 652 W/m² | - |
| 1787588230 | 28.89° C | 51% | 1012.7 hPa | 0 mm | - | 651 W/m² | - |
| 1787587925 | 28.33° C | 52% | 1012.5 hPa | 0 mm | - | 650 W/m² | - |
| 1787587621 | 28.89° C | 51% | 1012.7 hPa | 0 mm | - | 639 W/m² | - |
* Rain latest hour (hover to see other rain measurements)
** Current wind speed in m/s (hover to see current wind gust speed)